Time;durP1;ratioP1;P1;durP2;ratioP2;P2;SDS_P1;SDS_P2;PMS_P1;PMS_P2;Temp;Humidity;BMP_temperature;BMP_pressure;BME280_temperature;BME280_humidity;BME280_pressure;Samples;Min_cycle;Max_cycle;Signal;HPM_P1;HPM_P2
2024/01/13 00:00:02;;;;;;;70.45;23.85;;;-2.90;87.70;;;;;;5008941;28;20475;-72
2024/01/13 00:02:28;;;;;;;73.93;23.48;;;-2.90;87.60;;;;;;5017383;28;20190;-71
2024/01/13 00:04:53;;;;;;;74.10;24.93;;;-3.00;87.60;;;;;;5012049;28;20228;-68
2024/01/13 00:07:19;;;;;;;70.10;21.70;;;-3.00;87.60;;;;;;5015745;28;20618;-71
2024/01/13 00:09:45;;;;;;;71.83;21.97;;;-2.80;87.70;;;;;;5015844;28;20244;-69
2024/01/13 00:12:10;;;;;;;68.40;23.77;;;-2.70;87.40;;;;;;5024822;28;20218;-70
2024/01/13 00:14:36;;;;;;;68.83;22.40;;;-2.70;87.30;;;;;;5015429;28;20217;-70
2024/01/13 00:17:01;;;;;;;68.50;23.43;;;-2.70;87.30;;;;;;5014448;28;20557;-73
2024/01/13 00:19:27;;;;;;;74.33;24.67;;;-2.60;87.10;;;;;;5012671;28;20194;-69
2024/01/13 00:21:53;;;;;;;76.67;25.80;;;-2.50;87.30;;;;;;5011069;28;20209;-68
2024/01/13 00:24:18;;;;;;;59.10;19.60;;;-2.50;87.30;;;;;;5009040;28;20218;-70
2024/01/13 00:26:44;;;;;;;73.23;22.37;;;-2.60;87.00;;;;;;5012541;28;20178;-70
2024/01/13 00:29:11;;;;;;;64.47;22.57;;;-2.70;86.80;;;;;;5008369;28;20209;-69
2024/01/13 00:31:37;;;;;;;66.60;21.70;;;-2.60;86.80;;;;;;5008756;28;20208;-69
2024/01/13 00:34:02;;;;;;;85.10;27.23;;;-2.70;86.60;;;;;;5011388;28;20646;-69
2024/01/13 00:36:28;;;;;;;65.60;23.50;;;-2.80;86.30;;;;;;5016275;28;20196;-69
2024/01/13 00:38:54;;;;;;;77.63;26.87;;;-2.80;86.30;;;;;;5009799;28;20674;-71
2024/01/13 00:41:19;;;;;;;59.93;22.50;;;-2.90;86.60;;;;;;5007486;28;20472;-70
2024/01/13 00:43:45;;;;;;;81.20;25.57;;;-2.90;86.80;;;;;;5007253;28;20756;-69
2024/01/13 00:46:10;;;;;;;71.50;23.17;;;-2.80;86.80;;;;;;5005436;28;20174;-69
2024/01/13 00:48:36;;;;;;;78.83;26.43;;;-2.70;86.80;;;;;;5016117;28;20403;-71
2024/01/13 00:51:02;;;;;;;77.33;24.23;;;-2.80;86.80;;;;;;5005532;28;20714;-71
2024/01/13 00:53:28;;;;;;;67.72;23.05;;;-2.70;86.80;;;;;;5011399;28;20185;-69
2024/01/13 00:55:54;;;;;;;69.00;25.30;;;-2.70;86.80;;;;;;5011131;28;20186;-69
2024/01/13 00:58:20;;;;;;;83.07;25.57;;;-2.60;86.80;;;;;;5012499;28;20651;-71
2024/01/13 01:00:45;;;;;;;75.87;24.90;;;-2.80;86.50;;;;;;5010550;28;20573;-69
2024/01/13 01:03:11;;;;;;;66.33;23.33;;;-2.80;86.50;;;;;;5011134;28;20216;-70
2024/01/13 01:05:36;;;;;;;61.67;22.00;;;-2.90;86.50;;;;;;5012288;28;20189;-71
2024/01/13 01:08:03;;;;;;;61.70;20.40;;;-2.90;86.50;;;;;;5009775;28;20192;-71
2024/01/13 01:10:28;;;;;;;62.95;21.45;;;-2.90;86.60;;;;;;5017623;28;20228;-72
2024/01/13 01:12:54;;;;;;;58.10;19.60;;;-3.00;86.60;;;;;;5018701;28;20620;-69
2024/01/13 01:15:20;;;;;;;64.63;20.47;;;-3.00;86.60;;;;;;5014834;28;20186;-71
2024/01/13 01:17:45;;;;;;;50.30;15.57;;;-3.00;86.90;;;;;;5021636;28;20297;-71
2024/01/13 01:20:11;;;;;;;55.03;17.70;;;-2.90;86.90;;;;;;5018744;28;20268;-70
2024/01/13 01:22:36;;;;;;;60.77;20.40;;;-3.00;86.60;;;;;;5017105;28;20252;-71
2024/01/13 01:25:02;;;;;;;59.73;20.13;;;-3.10;86.60;;;;;;5020059;28;20218;-71
2024/01/13 01:27:28;;;;;;;76.90;23.00;;;-3.10;86.80;;;;;;5016568;28;20200;-70
2024/01/13 01:29:53;;;;;;;65.57;22.77;;;-3.10;87.00;;;;;;5021304;28;20412;-70
2024/01/13 01:32:19;;;;;;;67.03;22.10;;;-3.10;86.90;;;;;;5010934;28;20182;-70
2024/01/13 01:34:45;;;;;;;78.37;22.30;;;-3.10;86.90;;;;;;5014998;28;20190;-71
2024/01/13 01:37:10;;;;;;;67.87;20.40;;;-3.10;87.00;;;;;;5015646;28;20189;-72
2024/01/13 01:39:36;;;;;;;56.73;20.90;;;-3.10;87.10;;;;;;5016387;28;20521;-71
2024/01/13 01:42:01;;;;;;;71.93;22.23;;;-2.90;87.30;;;;;;5013020;28;20251;-69
2024/01/13 01:44:27;;;;;;;55.50;22.13;;;-2.80;87.30;;;;;;5002648;28;20988;-71
2024/01/13 01:46:54;;;;;;;82.57;24.90;;;-2.80;87.30;;;;;;5017550;28;20209;-71
2024/01/13 01:49:19;;;;;;;63.60;22.63;;;-2.70;87.30;;;;;;5014054;28;20186;-70
2024/01/13 01:51:45;;;;;;;56.60;19.10;;;-2.60;87.10;;;;;;5011241;28;20201;-70
2024/01/13 01:54:11;;;;;;;74.43;25.33;;;-2.80;86.60;;;;;;5007352;28;20243;-71
2024/01/13 01:56:38;;;;;;;77.03;23.70;;;-2.90;86.30;;;;;;5020878;28;20460;-70
2024/01/13 01:59:04;;;;;;;72.30;25.15;;;-2.90;86.30;;;;;;5010843;28;20186;-70
2024/01/13 02:01:31;;;;;;;62.57;23.03;;;-2.90;86.50;;;;;;5016707;28;20206;-71
2024/01/13 02:03:57;;;;;;;72.43;24.17;;;-2.90;86.60;;;;;;5010139;28;20477;-69
2024/01/13 02:06:24;;;;;;;78.50;25.67;;;-2.90;86.60;;;;;;5017469;28;20567;-70
2024/01/13 02:08:50;;;;;;;62.17;24.35;;;-3.00;86.60;;;;;;5018395;28;20245;-69
2024/01/13 02:11:16;;;;;;;61.72;19.45;;;-3.00;86.80;;;;;;5008813;28;20205;-70
2024/01/13 02:13:44;;;;;;;77.45;24.98;;;-2.90;86.80;;;;;;5014178;28;20188;-70
2024/01/13 02:16:11;;;;;;;94.97;29.40;;;-2.90;86.90;;;;;;5017538;28;20185;-70
2024/01/13 02:18:38;;;;;;;73.80;25.70;;;-2.90;86.90;;;;;;5017557;28;20216;-69
2024/01/13 02:21:03;;;;;;;60.78;22.98;;;-3.00;86.90;;;;;;5010715;28;20209;-70
2024/01/13 02:23:29;;;;;;;91.90;28.10;;;-2.90;86.90;;;;;;5018275;28;20632;-69
2024/01/13 02:25:55;;;;;;;84.40;28.77;;;-2.90;87.00;;;;;;5011842;28;20864;-70
2024/01/13 02:28:21;;;;;;;79.70;24.85;;;-3.00;86.90;;;;;;5017110;28;20188;-69
2024/01/13 02:30:46;;;;;;;77.93;26.83;;;-3.00;87.00;;;;;;5016795;28;20213;-71
2024/01/13 02:33:12;;;;;;;72.73;25.80;;;-2.90;87.00;;;;;;5014378;28;20600;-69
2024/01/13 02:35:38;;;;;;;78.97;24.73;;;-2.80;87.30;;;;;;5015277;28;20189;-69
2024/01/13 02:38:03;;;;;;;86.77;28.30;;;-2.70;87.40;;;;;;5017059;28;20256;-70
2024/01/13 02:40:29;;;;;;;77.53;26.83;;;-2.70;87.40;;;;;;5010506;28;20205;-70
2024/01/13 02:42:55;;;;;;;83.20;25.70;;;-2.50;87.30;;;;;;5019156;28;20543;-69
2024/01/13 02:45:20;;;;;;;76.50;25.90;;;-2.50;87.40;;;;;;5020041;28;20694;-69
2024/01/13 02:47:53;;;;;;;79.83;26.93;;;-2.40;87.40;;;;;;5021724;28;20189;-70
2024/01/13 02:50:19;;;;;;;96.82;30.90;;;-2.30;87.30;;;;;;5013764;28;20214;-69
2024/01/13 02:52:47;;;;;;;70.93;26.37;;;-2.30;87.10;;;;;;5014801;28;20959;-69
2024/01/13 02:55:13;;;;;;;69.80;23.55;;;-2.40;87.00;;;;;;5016343;28;20930;-70
2024/01/13 02:57:38;;;;;;;84.70;25.70;;;-2.40;86.90;;;;;;5017421;28;20197;-68
2024/01/13 03:00:05;;;;;;;80.23;26.50;;;-2.50;86.50;;;;;;5008053;28;20535;-70
2024/01/13 03:02:31;;;;;;;73.15;23.80;;;-2.60;86.20;;;;;;5012648;28;20185;-69
2024/01/13 03:04:56;;;;;;;70.53;23.40;;;-2.70;86.20;;;;;;5021966;28;20214;-70
2024/01/13 03:07:25;;;;;;;80.10;24.50;;;-2.70;86.20;;;;;;5010751;28;20313;-71
2024/01/13 03:09:51;;;;;;;82.82;28.02;;;-2.70;86.30;;;;;;5013688;28;20194;-70
2024/01/13 03:12:16;;;;;;;70.00;26.77;;;-2.70;86.50;;;;;;5014281;28;20186;-70
2024/01/13 03:14:42;;;;;;;78.33;21.93;;;-2.70;86.50;;;;;;5016044;28;20244;-70
2024/01/13 03:17:07;;;;;;;78.37;22.97;;;-2.80;86.30;;;;;;5011609;28;20310;-69
2024/01/13 03:19:33;;;;;;;82.07;25.90;;;-2.80;86.60;;;;;;5011502;28;20190;-69
2024/01/13 03:21:58;;;;;;;79.43;24.17;;;-2.80;86.60;;;;;;5017169;28;20790;-67
2024/01/13 03:24:24;;;;;;;85.57;24.40;;;-2.80;86.80;;;;;;5006573;28;20232;-70
2024/01/13 03:26:49;;;;;;;70.43;24.27;;;-2.80;86.80;;;;;;5018516;28;20638;-70
2024/01/13 03:29:15;;;;;;;76.03;24.20;;;-2.80;86.80;;;;;;5013275;28;20174;-70
2024/01/13 03:31:41;;;;;;;66.60;22.27;;;-2.90;86.80;;;;;;5013429;28;20205;-70
2024/01/13 03:34:06;;;;;;;71.70;24.97;;;-2.80;86.90;;;;;;5007740;28;20198;-70
2024/01/13 03:36:32;;;;;;;72.10;25.30;;;-2.80;86.90;;;;;;5017054;28;20181;-70
2024/01/13 03:38:59;;;;;;;72.63;23.77;;;-2.80;86.90;;;;;;5008039;28;20364;-69
2024/01/13 03:41:25;;;;;;;76.07;24.23;;;-2.80;86.90;;;;;;5007551;28;20280;-69
2024/01/13 03:43:51;;;;;;;69.70;26.60;;;-2.70;87.10;;;;;;5011704;28;20293;-72
2024/01/13 03:46:17;;;;;;;64.70;23.67;;;-2.80;86.90;;;;;;5015697;28;20271;-71
2024/01/13 03:48:42;;;;;;;71.77;24.60;;;-2.80;86.90;;;;;;5020772;28;20729;-72
2024/01/13 03:51:09;;;;;;;66.93;24.27;;;-2.70;86.90;;;;;;5025401;28;20227;-70
2024/01/13 03:53:35;;;;;;;70.10;23.70;;;-2.70;86.90;;;;;;5018344;28;20272;-71
2024/01/13 03:56:01;;;;;;;83.60;27.80;;;-2.70;86.80;;;;;;5015692;28;20253;-71
2024/01/13 03:58:27;;;;;;;77.57;26.63;;;-2.70;86.80;;;;;;5021526;28;20196;-69
2024/01/13 04:00:52;;;;;;;85.67;25.60;;;-2.70;86.80;;;;;;5019399;28;20302;-70
2024/01/13 04:03:18;;;;;;;69.70;24.57;;;-2.80;86.80;;;;;;5016850;28;20189;-71
2024/01/13 04:05:44;;;;;;;57.87;20.50;;;-2.80;86.80;;;;;;5020113;28;20217;-71
2024/01/13 04:08:09;;;;;;;59.43;20.73;;;-2.70;86.90;;;;;;5015594;28;20183;-70
2024/01/13 04:10:35;;;;;;;70.13;20.93;;;-2.90;86.90;;;;;;5016811;28;20206;-72
2024/01/13 04:13:00;;;;;;;61.47;21.83;;;-3.00;86.90;;;;;;5013570;28;20221;-69
2024/01/13 04:15:26;;;;;;;60.93;21.80;;;-3.00;86.90;;;;;;5018012;28;20192;-69
2024/01/13 04:17:53;;;;;;;54.23;18.17;;;-2.80;86.90;;;;;;5018813;28;20258;-70
2024/01/13 04:20:18;;;;;;;51.60;19.48;;;-2.70;87.10;;;;;;5007671;28;20272;-71
2024/01/13 04:22:44;;;;;;;50.60;19.97;;;-2.50;87.10;;;;;;5011281;28;20531;-69
2024/01/13 04:25:09;;;;;;;59.40;20.40;;;-2.50;87.00;;;;;;5013127;28;20694;-70
2024/01/13 04:27:35;;;;;;;52.13;18.87;;;-2.50;86.90;;;;;;5019998;28;20189;-71
2024/01/13 04:30:01;;;;;;;61.50;21.50;;;-2.30;86.80;;;;;;5012802;28;20220;-69
2024/01/13 04:32:26;;;;;;;49.77;19.77;;;-2.30;86.60;;;;;;5025187;28;20201;-69
2024/01/13 04:34:52;;;;;;;66.67;21.77;;;-2.40;86.30;;;;;;5010531;28;20184;-69
2024/01/13 04:37:17;;;;;;;66.13;20.20;;;-2.40;86.00;;;;;;5014033;28;20189;-70
2024/01/13 04:39:43;;;;;;;56.20;19.73;;;-2.30;85.90;;;;;;5009811;28;20278;-70
2024/01/13 04:42:08;;;;;;;69.20;22.27;;;-2.30;85.90;;;;;;5019675;28;20234;-70
2024/01/13 04:44:34;;;;;;;59.93;20.17;;;-2.30;85.70;;;;;;5012946;28;20642;-71
2024/01/13 04:47:00;;;;;;;60.97;20.77;;;-2.30;85.60;;;;;;5020839;28;20243;-70
2024/01/13 04:49:25;;;;;;;59.70;23.00;;;-2.20;85.60;;;;;;5010574;28;20289;-70
2024/01/13 04:51:51;;;;;;;62.37;22.23;;;-2.10;85.60;;;;;;5007887;28;20197;-70
2024/01/13 04:54:16;;;;;;;56.47;19.93;;;-2.10;85.50;;;;;;5008686;28;20189;-70
2024/01/13 04:56:42;;;;;;;70.60;22.27;;;-2.10;85.30;;;;;;5019372;28;20186;-70
2024/01/13 04:59:07;;;;;;;60.80;20.60;;;-2.10;85.20;;;;;;5017234;28;20190;-70
2024/01/13 05:01:33;;;;;;;65.37;22.23;;;-2.10;85.00;;;;;;5015267;28;20214;-71
2024/01/13 05:03:59;;;;;;;64.00;22.37;;;-2.20;84.90;;;;;;5016790;28;20559;-70
2024/01/13 05:06:24;;;;;;;65.57;21.60;;;-2.20;84.90;;;;;;5018709;28;20265;-70
2024/01/13 05:08:50;;;;;;;67.03;21.80;;;-2.10;84.90;;;;;;5011484;28;20243;-70
2024/01/13 05:11:17;;;;;;;64.87;22.20;;;-2.10;84.90;;;;;;5012193;28;20228;-71
2024/01/13 05:13:43;;;;;;;74.25;25.95;;;-2.10;84.90;;;;;;5016173;28;20264;-71
2024/01/13 05:16:09;;;;;;;62.57;22.03;;;-2.20;84.90;;;;;;5014494;28;20280;-69
2024/01/13 05:18:34;;;;;;;88.43;26.20;;;-2.30;84.70;;;;;;5018432;28;20569;-70
2024/01/13 05:21:00;;;;;;;71.77;24.70;;;-2.30;85.00;;;;;;5015113;28;20282;-70
2024/01/13 05:23:25;;;;;;;71.07;22.10;;;-2.40;85.00;;;;;;5019133;28;20189;-70
2024/01/13 05:25:51;;;;;;;78.87;26.27;;;-2.30;85.00;;;;;;5005750;28;20194;-70
2024/01/13 05:28:16;;;;;;;73.13;24.33;;;-2.30;85.30;;;;;;5010783;28;20180;-70
2024/01/13 05:30:42;;;;;;;72.67;24.97;;;-2.30;85.20;;;;;;4999025;28;20202;-70
2024/01/13 05:33:08;;;;;;;64.77;24.63;;;-2.30;85.30;;;;;;5011577;28;20530;-69
2024/01/13 05:35:34;;;;;;;89.60;26.05;;;-2.30;85.30;;;;;;5005696;28;20181;-71
2024/01/13 05:37:59;;;;;;;75.47;25.50;;;-2.30;85.50;;;;;;5018597;28;20197;-71
2024/01/13 05:40:25;;;;;;;76.20;25.47;;;-2.20;85.50;;;;;;5000715;28;20532;-71
2024/01/13 05:42:50;;;;;;;81.83;24.67;;;-2.20;85.60;;;;;;5004232;28;20227;-70
2024/01/13 05:45:16;;;;;;;68.97;25.03;;;-2.40;85.20;;;;;;5012072;28;20626;-71
2024/01/13 05:47:42;;;;;;;58.17;21.60;;;-2.40;85.30;;;;;;5016837;28;20185;-70
2024/01/13 05:50:09;;;;;;;71.03;22.43;;;-2.40;85.30;;;;;;5005821;28;20308;-69
2024/01/13 05:52:36;;;;;;;62.10;21.73;;;-2.40;85.60;;;;;;5021771;28;20471;-71
2024/01/13 05:55:03;;;;;;;64.53;21.55;;;-2.30;85.50;;;;;;5013331;28;20626;-71
2024/01/13 05:57:28;;;;;;;60.00;20.40;;;-2.40;85.50;;;;;;5023631;28;20190;-69
2024/01/13 05:59:54;;;;;;;70.17;22.00;;;-2.40;85.50;;;;;;5009530;28;20630;-71
2024/01/13 06:02:20;;;;;;;48.40;18.83;;;-2.30;85.50;;;;;;5021314;28;20181;-71
2024/01/13 06:04:46;;;;;;;72.17;22.87;;;-2.30;85.30;;;;;;5021987;28;20216;-72
2024/01/13 06:07:14;;;;;;;65.00;21.77;;;-2.40;85.00;;;;;;5027486;28;20197;-72
2024/01/13 06:09:40;;;;;;;78.00;22.30;;;-2.60;85.00;;;;;;5019109;28;20177;-71
2024/01/13 06:12:07;;;;;;;67.72;23.60;;;-2.60;85.30;;;;;;5019834;28;20645;-69
2024/01/13 06:14:32;;;;;;;63.30;21.70;;;-2.70;85.50;;;;;;5022615;28;20182;-70
2024/01/13 06:16:58;;;;;;;76.07;23.87;;;-2.60;85.60;;;;;;5011998;28;20584;-71
2024/01/13 06:19:24;;;;;;;60.77;21.90;;;-2.70;85.60;;;;;;5018103;28;20268;-70
2024/01/13 06:21:49;;;;;;;71.60;24.53;;;-2.70;85.70;;;;;;5010876;28;20213;-70
2024/01/13 06:24:15;;;;;;;77.20;25.27;;;-2.70;85.70;;;;;;5023635;28;20213;-70
2024/01/13 06:26:41;;;;;;;75.13;24.60;;;-2.70;85.70;;;;;;5012508;28;20747;-69
2024/01/13 06:29:08;;;;;;;62.13;21.67;;;-2.70;85.70;;;;;;5013689;28;20185;-71
2024/01/13 06:31:34;;;;;;;74.40;25.27;;;-2.70;85.90;;;;;;5016393;28;20816;-71
2024/01/13 06:33:59;;;;;;;66.33;22.60;;;-2.80;85.90;;;;;;5034862;28;20192;-68
2024/01/13 06:36:25;;;;;;;75.87;25.70;;;-2.80;85.90;;;;;;5020260;28;20465;-70
2024/01/13 06:38:50;;;;;;;80.23;22.40;;;-2.60;86.00;;;;;;5023131;28;20829;-70
2024/01/13 06:41:16;;;;;;;70.00;22.10;;;-2.60;85.90;;;;;;5017593;28;20214;-71
2024/01/13 06:43:42;;;;;;;65.10;21.80;;;-2.50;85.70;;;;;;5014366;28;20189;-70
2024/01/13 06:46:08;;;;;;;82.73;23.70;;;-2.60;85.60;;;;;;5008786;28;20555;-70
2024/01/13 06:48:33;;;;;;;75.95;24.80;;;-2.60;85.50;;;;;;5022415;28;20640;-70
2024/01/13 06:50:59;;;;;;;67.60;23.83;;;-2.70;85.30;;;;;;5000812;28;20265;-68
2024/01/13 06:53:25;;;;;;;71.17;23.37;;;-2.70;85.50;;;;;;5021154;28;20208;-68
2024/01/13 06:55:51;;;;;;;83.97;25.47;;;-2.70;85.50;;;;;;5016803;28;20453;-69
2024/01/13 06:58:17;;;;;;;88.50;23.97;;;-2.80;85.50;;;;;;5017528;28;20277;-70
2024/01/13 07:00:42;;;;;;;68.00;25.53;;;-2.80;85.60;;;;;;5010277;28;20474;-69
2024/01/13 07:03:08;;;;;;;88.13;27.13;;;-2.80;85.70;;;;;;5016731;28;20204;-68
2024/01/13 07:05:33;;;;;;;91.17;26.37;;;-2.90;85.70;;;;;;5009143;28;20346;-70
2024/01/13 07:08:00;;;;;;;94.97;26.90;;;-2.80;85.90;;;;;;5014717;28;20268;-69
2024/01/13 07:10:28;;;;;;;77.38;24.45;;;-2.80;85.90;;;;;;5007404;28;20308;-71
2024/01/13 07:12:53;;;;;;;92.45;25.95;;;-2.70;86.00;;;;;;5013697;28;20687;-71
2024/01/13 07:15:19;;;;;;;89.93;24.40;;;-2.70;86.00;;;;;;5008689;28;20215;-71
2024/01/13 07:17:44;;;;;;;74.40;25.47;;;-2.70;85.70;;;;;;5011352;28;20276;-72
2024/01/13 07:20:10;;;;;;;80.83;26.77;;;-2.80;85.50;;;;;;5007337;28;20206;-68
2024/01/13 07:22:36;;;;;;;92.22;26.70;;;-2.90;86.00;;;;;;5015126;28;20189;-69
2024/01/13 07:25:03;;;;;;;77.07;24.40;;;-2.90;86.20;;;;;;5019073;28;20225;-69
2024/01/13 07:27:29;;;;;;;72.85;25.65;;;-3.00;86.50;;;;;;5018640;28;20186;-69
2024/01/13 07:29:55;;;;;;;90.47;26.85;;;-2.90;86.50;;;;;;5008025;28;20236;-70
2024/01/13 07:32:20;;;;;;;72.83;22.80;;;-3.00;86.50;;;;;;5014007;28;20182;-70
2024/01/13 07:34:46;;;;;;;73.70;24.60;;;-2.90;86.50;;;;;;5014414;28;20497;-70
2024/01/13 07:37:12;;;;;;;81.67;27.40;;;-2.90;86.50;;;;;;5014254;28;20185;-69
2024/01/13 07:39:37;;;;;;;76.33;26.00;;;-2.90;86.30;;;;;;5011599;28;20206;-69
2024/01/13 07:42:03;;;;;;;72.87;21.40;;;-2.80;86.20;;;;;;5016461;28;20829;-70
2024/01/13 07:44:29;;;;;;;61.70;19.60;;;-2.80;85.90;;;;;;5017505;28;20248;-70
2024/01/13 07:47:00;;;;;;;70.20;23.73;;;-2.90;85.60;;;;;;5014483;28;21015;-71
2024/01/13 07:49:30;;;;;;;75.00;23.52;;;-2.90;85.50;;;;;;5018749;28;20181;-70
2024/01/13 07:51:56;;;;;;;65.97;22.63;;;-3.00;85.50;;;;;;5013653;28;20221;-72
2024/01/13 07:54:22;;;;;;;68.85;20.77;;;-3.00;85.50;;;;;;5017483;28;20181;-70
2024/01/13 07:56:49;;;;;;;78.63;23.27;;;-2.90;85.60;;;;;;5017356;28;20212;-69
2024/01/13 07:59:16;;;;;;;56.08;18.42;;;-2.90;85.60;;;;;;5014244;28;20285;-72
2024/01/13 08:01:42;;;;;;;55.00;19.30;;;-3.00;85.30;;;;;;5008246;28;20209;-70
2024/01/13 08:04:08;;;;;;;55.17;19.10;;;-3.00;85.20;;;;;;5012921;28;20218;-69
2024/01/13 08:06:34;;;;;;;60.30;20.40;;;-2.90;85.30;;;;;;5019251;28;20675;-70
2024/01/13 08:08:59;;;;;;;69.60;19.90;;;-2.90;85.30;;;;;;5016938;28;20604;-72
2024/01/13 08:11:25;;;;;;;49.67;15.83;;;-2.80;85.30;;;;;;5006939;28;20459;-70
2024/01/13 08:13:50;;;;;;;67.23;22.00;;;-2.70;85.50;;;;;;5011690;28;20182;-72
2024/01/13 08:16:16;;;;;;;73.73;22.20;;;-2.80;85.20;;;;;;5017752;28;20256;-70
2024/01/13 08:18:42;;;;;;;65.27;22.37;;;-2.80;85.00;;;;;;5011855;28;20186;-69
2024/01/13 08:21:07;;;;;;;62.27;20.20;;;-2.70;85.20;;;;;;5013116;28;20595;-69
2024/01/13 08:23:34;;;;;;;60.07;21.50;;;-2.70;85.20;;;;;;5009885;28;21196;-70
2024/01/13 08:26:00;;;;;;;50.92;18.35;;;-2.70;85.20;;;;;;5023031;28;20185;-70
2024/01/13 08:28:26;;;;;;;52.45;16.52;;;-2.70;85.20;;;;;;5016190;28;20189;-72
2024/01/13 08:30:52;;;;;;;42.83;15.30;;;-2.60;85.00;;;;;;5019878;28;20201;-71
2024/01/13 08:33:18;;;;;;;44.72;15.13;;;-2.60;84.90;;;;;;5007291;28;20196;-70
2024/01/13 08:35:44;;;;;;;42.67;14.20;;;-2.50;84.90;;;;;;5017206;28;20173;-69
2024/01/13 08:38:11;;;;;;;30.95;11.88;;;-2.50;84.70;;;;;;5007407;28;20213;-70
2024/01/13 08:40:36;;;;;;;34.05;12.57;;;-2.60;83.80;;;;;;5020455;28;20205;-71
2024/01/13 08:43:03;;;;;;;40.53;12.67;;;-2.60;84.00;;;;;;5013583;28;20654;-70
2024/01/13 08:45:33;;;;;;;44.58;14.35;;;-2.60;84.10;;;;;;5019354;28;20271;-71
2024/01/13 08:48:00;;;;;;;44.38;12.00;;;-2.60;84.10;;;;;;5011596;28;20189;-70
2024/01/13 08:50:26;;;;;;;34.70;12.73;;;-2.50;84.40;;;;;;5023124;28;20233;-69
2024/01/13 08:52:54;;;;;;;38.70;13.50;;;-2.40;84.40;;;;;;5018662;28;20565;-71
2024/01/13 08:55:23;;;;;;;46.60;15.15;;;-2.30;84.10;;;;;;5023615;28;20455;-70
2024/01/13 08:57:50;;;;;;;38.20;14.18;;;-2.40;83.80;;;;;;5011060;28;20251;-69
2024/01/13 09:00:17;;;;;;;33.77;12.20;;;-2.50;83.80;;;;;;5016570;28;20586;-69
2024/01/13 09:02:43;;;;;;;30.23;11.07;;;-2.40;84.10;;;;;;5011213;28;20424;-71
2024/01/13 09:05:10;;;;;;;45.35;14.32;;;-2.30;84.30;;;;;;5021991;28;20209;-71
2024/01/13 09:07:37;;;;;;;37.35;13.02;;;-2.30;84.00;;;;;;5014933;28;20181;-70
2024/01/13 09:10:03;;;;;;;30.38;11.73;;;-2.30;83.80;;;;;;5014897;28;20272;-70
2024/01/13 09:12:29;;;;;;;28.80;10.10;;;-2.30;83.80;;;;;;5007361;28;20231;-71
2024/01/13 09:14:55;;;;;;;24.02;8.02;;;-2.30;83.70;;;;;;5010244;28;20569;-72
2024/01/13 09:17:23;;;;;;;26.17;9.73;;;-2.20;83.40;;;;;;5012342;28;20608;-70
2024/01/13 09:19:49;;;;;;;21.50;8.60;;;-2.10;83.40;;;;;;5014292;28;20309;-70
2024/01/13 09:22:15;;;;;;;15.97;7.07;;;-2.10;83.40;;;;;;5011909;28;20237;-72
2024/01/13 09:24:44;;;;;;;23.93;7.93;;;-2.10;83.40;;;;;;5018997;28;20224;-71
2024/01/13 09:27:10;;;;;;;14.75;6.45;;;-2.10;83.30;;;;;;5009878;28;20194;-73
2024/01/13 09:29:35;;;;;;;21.07;6.70;;;-2.00;83.30;;;;;;5016717;28;20182;-72
2024/01/13 09:32:04;;;;;;;13.80;7.53;;;-2.00;83.10;;;;;;5020251;28;20482;-71
2024/01/13 09:34:30;;;;;;;22.85;8.95;;;-2.00;82.70;;;;;;5013229;28;20570;-73
2024/01/13 09:36:55;;;;;;;31.90;12.30;;;-1.90;82.70;;;;;;5018907;28;20197;-72
2024/01/13 09:39:21;;;;;;;30.73;12.30;;;-1.80;82.80;;;;;;5020363;28;20193;-70
2024/01/13 09:41:47;;;;;;;16.70;7.30;;;-1.90;82.20;;;;;;5019634;28;20209;-72
2024/01/13 09:44:22;;;;;;;16.00;6.88;;;-2.10;82.50;;;;;;5019597;28;20221;-70
2024/01/13 09:46:51;;;;;;;18.25;6.38;;;-2.10;82.80;;;;;;5023956;28;20238;-73
2024/01/13 09:49:18;;;;;;;15.98;6.97;;;-2.10;83.10;;;;;;5019227;28;20190;-73
2024/01/13 09:51:44;;;;;;;19.35;7.97;;;-2.00;83.30;;;;;;5019199;28;20586;-71
2024/01/13 09:54:26;;;;;;;20.60;8.02;;;-2.20;82.80;;;;;;5017274;28;20201;-72
2024/01/13 09:56:53;;;;;;;17.95;7.85;;;-2.40;83.00;;;;;;5013041;28;20662;-71
2024/01/13 09:59:22;;;;;;;14.95;8.10;;;-2.40;83.70;;;;;;5010386;28;20189;-72
2024/01/13 10:01:49;;;;;;;14.57;7.25;;;-2.40;83.70;;;;;;5011443;28;20205;-70
2024/01/13 10:04:15;;;;;;;19.67;7.85;;;-2.30;83.70;;;;;;5015414;28;20214;-70
2024/01/13 10:06:41;;;;;;;24.30;8.40;;;-2.30;83.80;;;;;;5023790;28;20185;-70
2024/01/13 10:09:07;;;;;;;18.15;7.97;;;-2.30;83.70;;;;;;5015544;28;20433;-72
2024/01/13 10:11:33;;;;;;;15.52;7.82;;;-2.20;83.60;;;;;;5020387;28;20726;-72
2024/01/13 10:14:07;;;;;;;24.50;9.00;;;-2.20;83.60;;;;;;5022768;28;20194;-70
2024/01/13 10:16:34;;;;;;;26.80;9.88;;;-2.20;83.40;;;;;;5013292;28;20425;-72
2024/01/13 10:19:01;;;;;;;22.70;9.95;;;-2.20;83.40;;;;;;5014905;28;20197;-70
2024/01/13 10:21:27;;;;;;;19.33;8.20;;;-2.30;83.60;;;;;;5005600;28;20519;-70
2024/01/13 10:23:57;;;;;;;23.30;10.13;;;-2.20;83.40;;;;;;5020519;28;20663;-72
2024/01/13 10:26:27;;;;;;;24.02;9.70;;;-2.10;83.70;;;;;;5017789;28;20968;-74
2024/01/13 10:28:54;;;;;;;20.85;9.00;;;-2.10;83.40;;;;;;5012036;28;20182;-72
2024/01/13 10:31:21;;;;;;;23.50;10.95;;;-2.10;83.10;;;;;;5015043;28;20228;-70
2024/01/13 10:33:47;;;;;;;26.55;10.50;;;-2.10;83.10;;;;;;5029948;28;20189;-69
2024/01/13 10:36:30;;;;;;;24.10;11.25;;;-1.90;83.30;;;;;;5022718;28;20867;-69
2024/01/13 10:39:00;;;;;;;22.08;9.75;;;-1.90;82.70;;;;;;5016730;28;20237;-69
2024/01/13 10:41:29;;;;;;;22.67;9.02;;;-1.80;82.40;;;;;;5006538;28;20298;-69
2024/01/13 10:43:56;;;;;;;23.17;10.38;;;-1.80;82.10;;;;;;5016588;28;20238;-71
2024/01/13 10:46:24;;;;;;;26.98;11.95;;;-1.70;82.10;;;;;;5011384;28;20182;-68
2024/01/13 10:48:53;;;;;;;28.75;11.15;;;-1.70;82.10;;;;;;5012272;28;20197;-70
2024/01/13 10:51:37;;;;;;;25.33;10.80;;;-1.70;82.10;;;;;;5014272;28;20211;-71
2024/01/13 10:54:03;;;;;;;24.73;10.75;;;-1.80;82.10;;;;;;5016197;28;20181;-69
2024/01/13 10:56:30;;;;;;;37.00;12.90;;;-1.70;82.40;;;;;;5009710;28;20192;-69
2024/01/13 10:58:57;;;;;;;31.92;11.45;;;-1.60;82.20;;;;;;5011283;28;20181;-69
2024/01/13 11:01:26;;;;;;;27.17;10.57;;;-1.60;81.90;;;;;;5007847;28;20328;-69
2024/01/13 11:03:53;;;;;;;27.63;10.40;;;-1.60;81.80;;;;;;5014038;28;20694;-69
2024/01/13 11:06:22;;;;;;;32.40;12.50;;;-1.70;81.80;;;;;;5007334;28;20190;-71
2024/01/13 11:08:48;;;;;;;22.65;9.50;;;-1.60;81.90;;;;;;5011521;28;20193;-70
2024/01/13 11:11:21;;;;;;;29.07;11.87;;;-1.60;81.80;;;;;;5005607;28;20214;-71
2024/01/13 11:14:00;;;;;;;35.17;11.82;;;-1.70;81.40;;;;;;5009803;28;20392;-73
2024/01/13 11:16:27;;;;;;;26.08;10.93;;;-1.60;81.70;;;;;;5009339;28;20557;-72
2024/01/13 11:18:54;;;;;;;25.70;12.07;;;-1.70;81.50;;;;;;5012904;28;20191;-72
2024/01/13 11:21:32;;;;;;;30.45;12.80;;;-1.80;81.70;;;;;;5008216;28;20745;-70
2024/01/13 11:24:07;;;;;;;37.70;12.45;;;-1.80;81.90;;;;;;5008907;28;20214;-72
2024/01/13 11:26:33;;;;;;;33.90;13.73;;;-1.70;82.20;;;;;;5025734;28;20526;-73
2024/01/13 11:28:58;;;;;;;36.70;13.50;;;-1.70;82.20;;;;;;5018513;28;20265;-71
2024/01/13 11:31:43;;;;;;;30.33;11.23;;;-1.70;82.20;;;;;;5009314;28;20289;-70
2024/01/13 11:34:11;;;;;;;20.73;8.85;;;-1.70;82.40;;;;;;5015545;28;20185;-70
2024/01/13 11:36:44;;;;;;;31.85;11.80;;;-1.60;82.40;;;;;;5018506;28;20186;-72
2024/01/13 11:39:09;;;;;;;26.75;10.15;;;-1.60;81.80;;;;;;5014882;28;20197;-71
2024/01/13 11:41:39;;;;;;;23.07;10.93;;;-1.70;81.70;;;;;;5009004;28;20932;-71
2024/01/13 11:44:06;;;;;;;26.45;10.93;;;-1.70;81.80;;;;;;5013001;28;20717;-72
2024/01/13 11:46:38;;;;;;;28.75;12.25;;;-1.80;81.90;;;;;;5011842;28;20192;-70
2024/01/13 11:49:06;;;;;;;25.38;11.35;;;-1.70;82.10;;;;;;5012810;28;20185;-71
2024/01/13 11:51:54;;;;;;;30.48;12.13;;;-1.70;82.20;;;;;;5010045;28;20209;-70
2024/01/13 11:54:20;;;;;;;25.83;10.07;;;-1.60;82.20;;;;;;5016768;28;20202;-71
2024/01/13 11:56:48;;;;;;;27.17;11.50;;;-1.40;82.10;;;;;;5017865;28;20279;-72
2024/01/13 11:59:15;;;;;;;28.48;11.32;;;-1.40;81.90;;;;;;5011902;28;20190;-72
2024/01/13 12:01:41;;;;;;;28.63;12.23;;;-1.50;81.40;;;;;;5009874;28;20208;-70
2024/01/13 12:04:08;;;;;;;28.80;11.00;;;-1.40;81.70;;;;;;5016309;28;20205;-70
2024/01/13 12:06:35;;;;;;;25.23;10.95;;;-1.40;81.10;;;;;;5017421;28;20177;-71
2024/01/13 12:09:00;;;;;;;29.92;12.35;;;-1.50;80.80;;;;;;5012818;28;20588;-69
2024/01/13 12:11:27;;;;;;;25.30;11.07;;;-1.40;80.90;;;;;;5016713;28;20234;-70
2024/01/13 12:13:53;;;;;;;31.17;13.13;;;-1.30;81.10;;;;;;5011707;28;20198;-69
2024/01/13 12:16:19;;;;;;;25.23;11.10;;;-1.30;80.50;;;;;;5025069;28;20654;-70
2024/01/13 12:18:47;;;;;;;26.42;10.20;;;-1.30;80.50;;;;;;5012580;28;20189;-71
2024/01/13 12:21:14;;;;;;;19.42;9.77;;;-1.30;80.20;;;;;;5016859;28;20212;-72
2024/01/13 12:23:42;;;;;;;28.42;12.35;;;-1.30;80.50;;;;;;5007795;28;20190;-71